Wednesday, August 31, 2016
04:22 UTC
  |  Log In   |  Register Free
Airport Search:

Branson Airport
(KBBG)

FAA data valid effective Jul 21 2016 - Sep 15 2016 (unless otherwise noted).

 
 
 
 
 
 
 
 
 
 
 
 
 
 
Summary: Branson (BBG)

Weather Summary


METAR for BBG is not available. Closest METAR is for
METAR

METAR KBBG 310415Z 00000KT 10SM CLR 23/22 A3010 RMK AO2

METAR KBBG 310355Z 00000KT 8SM CLR 23/22 A3009 RMK AO2

METAR KBBG 310335Z 00000KT 10SM 23/22 A3009 RMK AO2

METAR KBBG 310315Z 00000KT 10SM 23/22 A3010 RMK AO2

METAR KBBG 310255Z 00000KT 9SM CLR 23/23 A3009 RMK AO2

METAR KBBG 310215Z 00000KT 10SM CLR 23/22 A3008 RMK AO2

METAR KBBG 310145Z 00000KT 10SM SKC 25/23 A3008

METAR KFLP 310415Z 00000KT 10SM CLR 24/21 A3004 RMK AO1

METAR KFWB 310355Z 03003KT 10SM CLR 24/22 A3010 RMK AO2

METAR KHRO 310353Z 26003KT 7SM CLR 23/22 A3009 RMK AO2 SLP174 T02280217

TAF for BBG is not available.
TAF

KBBG - TAF KBBG 302320Z 3100/3124 11005KT P6SM FEW050

KBBG - FM310130 00000KT P6SM FEW100 SCT250

KBBG - FM311000 VRB03KT P6SM SCT050 BKN100 PROB30 3111/3114 6SM -TSRA OVC050CB

KBBG - FM311500 03005KT P6SM VCSH BKN050 OVC120

KBBG - TEMPO 3115/3119 6SM -TSRA OVC040CB =

KHRO - TAF KHRO 302320Z 3100/3124 VRB04KT P6SM FEW050 BKN250

KHRO - FM311200 05005KT P6SM VCSH SCT025 BKN050

KHRO - FM311600 02007KT P6SM VCTS BKN040CB OVC100 =

GlobalAir.com is loading additional information.
 Current Weather at BBG
73.0 F° (23.0 C°)
Fair
North winds at 0.0 mph
Pressure:
30.09 in
Humidity:
100%
Wind:
Calm
Dew Point:
73.4 F° (23.0 C°)
Visibility:
9.00 mi
BBG NOAA Radar

Runway Summary

ID Dimensions Surface Instrument Approaches
14/32 150 ft x 7140 ft Bituminous Concrete (grooved), Excellent Condition RNAV (GPS) RWY 14
ILS OR LOC RWY 32
RNAV (GPS) RWY 14
RNAV (GPS) RWY 32

Communications Summary


CTAF128.15
UNICOM122.95
ATIS124.625
WX AWOS-3
GROUND118.4 []
TOWER128.15 []
CLEARANCE DELIVERY118.4

Terminal Procedures Summary


Airport Diagram

Approaches
More Approaches
Special Minimums

Closest Alternate Airports with Instrument Procedures

KPLK - M. Graham Clark - Taney County - 5.8 nm NW from BBG

KFWB - Branson West Municipal - Emerson Field - 13.9 nm NW from BBG

KHRO - Boone County - 16.4 nm SE from BBG

4M1 - Carroll County - 22.4 nm SW from BBG

KFLP - Marion County Regional - 32.8 nm SE from BBG

94K - Cassville Municipal - 35.1 nm NW from BBG

2H2 - Jerry Sumners Sr Aurora Municipal - 35.1 nm NW from BBG

KAOV - Ava Bill Martin Memorial - 36.3 nm NE from BBG

KBPK - Baxter County - 36.6 nm SE from BBG

H34 - Huntsville Municipal - 38.2 nm SW from BBG

Find All Airport Services Find A Hotel Find A Rental Car Find A Golf Course Find A Restaurant $100 Hamburger



FBO's on the Field
FBO Company Facility Photos Services Transportation Aviation Fuel Prices: Prices include tax
Catering Weather Repair Courtesy Rental Type 100LL JetA JetA+ MOGAS 8087
 
Branson Jet Center

This FBO has not yet been rated
FS:Epic
Last Updated: Jul-26
Login to update fuel prices
SS:
Contact Branson Jet CenterMore FBO Information
 
Add another FBO Facility Photos Catering Weather Repair Courtesy Rental Type 100LL JetA JetA+ MOGAS 8087
Services Transportation Aviation Fuel Prices: Prices include tax


model-print
model-print
model-print
model-print